Terminal Aerodrome Forecast
Issued by NWS

Home | Current Version | Previous Version | Text Only | Print | Product List | Glossary On
Versions: 1 2 3 4 5 6 7 8 9 10 11 12 13 14
000
FTUS46 KSTO 072335
TAFSMF
TAF
KSMF 072335Z 0800/0824 20011G15KT P6SM FEW150 BKN250
     FM080200 17012KT P6SM SCT250
     FM080500 15007KT P6SM SCT050 SCT250
     FM081500 19010KT P6SM SCT050 OVC100=

USA.gov is the U.S. government's official web portal to all federal, state and local government web resources and services.